createdAt,value
2017-12-06T00:00:02.939Z,28.00
2017-12-06T00:01:05.926Z,29.20
2017-12-06T00:02:08.867Z,27.40
2017-12-06T00:03:11.842Z,23.00
2017-12-06T00:04:14.823Z,31.50
2017-12-06T00:05:17.830Z,26.40
2017-12-06T00:06:21.170Z,34.80
2017-12-06T00:07:24.101Z,36.00
2017-12-06T00:08:27.029Z,32.00
2017-12-06T00:09:29.975Z,29.00
2017-12-06T00:10:32.978Z,29.40
2017-12-06T00:11:36.001Z,29.00
2017-12-06T00:12:43.188Z,29.80
2017-12-06T00:13:49.990Z,36.40
2017-12-06T00:15:55.562Z,29.00
2017-12-06T00:16:58.763Z,29.00
2017-12-06T00:18:01.721Z,30.00
2017-12-06T00:19:05.069Z,33.20
2017-12-06T00:20:09.219Z,29.00
2017-12-06T00:21:13.061Z,28.40
2017-12-06T00:22:17.018Z,34.00
2017-12-06T00:23:24.256Z,30.50
2017-12-06T00:24:27.671Z,31.00
2017-12-06T00:25:30.963Z,31.40
2017-12-06T00:26:33.939Z,28.00
2017-12-06T00:27:36.931Z,31.40
2017-12-06T00:28:40.024Z,26.00
2017-12-06T00:29:43.036Z,26.00
2017-12-06T00:30:46.070Z,28.40
2017-12-06T00:31:49.310Z,29.60
2017-12-06T00:32:52.335Z,28.00
2017-12-06T00:33:55.612Z,31.00
2017-12-06T00:34:58.642Z,28.00
2017-12-06T00:36:02.530Z,32.20
2017-12-06T00:37:05.560Z,32.60
2017-12-06T00:38:11.949Z,34.00
2017-12-06T00:39:14.994Z,36.60
2017-12-06T00:40:18.416Z,27.20
2017-12-06T00:41:21.552Z,28.40
2017-12-06T00:42:25.838Z,32.00
2017-12-06T00:43:29.615Z,34.40
2017-12-06T00:44:33.507Z,37.00
2017-12-06T00:45:36.535Z,35.00
2017-12-06T00:46:39.471Z,27.80
2017-12-06T00:47:42.550Z,27.00
2017-12-06T00:48:45.707Z,28.00
2017-12-06T00:49:48.755Z,26.40
2017-12-06T00:50:52.021Z,30.40
2017-12-06T00:51:54.991Z,33.00
2017-12-06T00:52:58.332Z,34.00
2017-12-06T00:54:01.290Z,24.60
2017-12-06T00:55:05.263Z,37.80
2017-12-06T00:56:08.215Z,31.00
2017-12-06T00:57:11.158Z,29.00
2017-12-06T00:58:14.255Z,26.40
2017-12-06T00:59:17.270Z,34.00
2017-12-06T01:00:20.321Z,26.80
2017-12-06T01:01:23.252Z,30.60
2017-12-06T01:02:26.147Z,31.00
2017-12-06T01:03:29.499Z,26.80
2017-12-06T01:04:32.427Z,29.50
2017-12-06T01:05:40.153Z,28.00
2017-12-06T01:06:42.943Z,33.40
2017-12-06T01:07:45.861Z,29.00
2017-12-06T01:08:48.732Z,37.00
2017-12-06T01:09:52.058Z,37.25
2017-12-06T01:10:54.959Z,29.50
2017-12-06T01:11:58.049Z,37.60
2017-12-06T01:13:00.870Z,32.80
2017-12-06T01:14:03.785Z,37.00
2017-12-06T01:15:07.724Z,27.00
2017-12-06T01:16:10.978Z,29.00
2017-12-06T01:17:13.987Z,31.60
2017-12-06T01:18:17.019Z,34.00
2017-12-06T01:19:19.996Z,33.20
2017-12-06T01:20:23.031Z,31.20
2017-12-06T01:21:26.093Z,32.60
2017-12-06T01:22:29.498Z,34.00
2017-12-06T01:23:32.404Z,24.00
2017-12-06T01:24:35.389Z,29.80
2017-12-06T01:25:38.394Z,31.00
2017-12-06T01:26:41.347Z,37.25
2017-12-06T01:27:44.326Z,29.40
2017-12-06T01:28:47.615Z,34.20
2017-12-06T01:29:50.560Z,37.75
2017-12-06T01:30:53.485Z,32.00
2017-12-06T01:31:56.430Z,26.00
2017-12-06T01:32:59.412Z,31.00
2017-12-06T01:34:02.350Z,37.20
2017-12-06T01:35:05.638Z,29.00
2017-12-06T01:36:08.618Z,26.40
2017-12-06T01:37:11.560Z,31.75
2017-12-06T01:38:14.517Z,29.80
2017-12-06T01:39:17.486Z,30.75
2017-12-06T01:40:20.441Z,35.60
2017-12-06T01:41:23.757Z,39.00
2017-12-06T01:42:26.710Z,30.60
2017-12-06T01:43:29.720Z,22.60
2017-12-06T01:44:32.691Z,29.00
2017-12-06T01:45:35.638Z,26.00
2017-12-06T01:46:38.799Z,35.40
2017-12-06T01:47:42.066Z,31.00
2017-12-06T01:48:44.974Z,31.00
2017-12-06T01:49:47.933Z,26.80
2017-12-06T01:50:50.987Z,33.20
2017-12-06T01:51:53.928Z,29.40
2017-12-06T01:52:56.971Z,33.00
2017-12-06T01:54:00.212Z,28.00
2017-12-06T01:55:03.182Z,29.80
2017-12-06T01:56:06.193Z,28.60
2017-12-06T01:57:09.187Z,30.20
2017-12-06T01:58:12.128Z,29.00
2017-12-06T01:59:15.174Z,31.40
2017-12-06T02:00:18.414Z,25.00
2017-12-06T02:01:21.367Z,33.00
2017-12-06T02:02:24.317Z,28.20
2017-12-06T02:03:27.356Z,36.20
2017-12-06T02:04:30.314Z,28.00
2017-12-06T02:05:33.504Z,28.40
2017-12-06T02:06:36.921Z,28.50
2017-12-06T02:07:39.878Z,32.00
2017-12-06T02:08:42.899Z,33.00
2017-12-06T02:09:45.848Z,22.00
2017-12-06T02:10:48.893Z,24.20
2017-12-06T02:11:51.847Z,26.80
2017-12-06T02:12:54.791Z,30.80
2017-12-06T02:13:57.804Z,27.80
2017-12-06T02:15:00.798Z,23.00
2017-12-06T02:16:03.819Z,26.80
2017-12-06T02:17:06.760Z,29.00
2017-12-06T02:18:10.065Z,26.00
2017-12-06T02:19:13.023Z,26.80
2017-12-06T02:20:15.953Z,35.40
2017-12-06T02:21:18.888Z,27.00
2017-12-06T02:22:21.876Z,22.00
2017-12-06T02:23:24.859Z,27.20
2017-12-06T02:24:28.100Z,30.00
2017-12-06T02:25:31.089Z,33.50
2017-12-06T02:26:34.183Z,23.00
2017-12-06T02:27:37.227Z,28.60
2017-12-06T02:28:40.226Z,25.25
2017-12-06T02:29:43.303Z,31.60
2017-12-06T02:30:46.632Z,29.40
2017-12-06T02:31:49.639Z,24.60
2017-12-06T02:32:52.607Z,32.60
2017-12-06T02:33:55.568Z,28.00
2017-12-06T02:34:58.552Z,31.00
2017-12-06T02:36:01.652Z,32.40
2017-12-06T02:37:04.874Z,32.20
2017-12-06T02:38:07.839Z,25.80
2017-12-06T02:39:10.741Z,33.40
2017-12-06T02:40:13.700Z,27.40
2017-12-06T02:41:16.628Z,23.00
2017-12-06T02:42:19.586Z,29.00
2017-12-06T02:43:22.817Z,27.00
2017-12-06T02:44:25.790Z,30.20
2017-12-06T02:45:28.762Z,28.00
2017-12-06T02:46:31.736Z,31.40
2017-12-06T02:47:34.802Z,32.20
2017-12-06T02:48:37.772Z,24.60
2017-12-06T02:49:41.098Z,30.25
2017-12-06T02:50:44.171Z,35.50
2017-12-06T02:51:47.136Z,26.80
2017-12-06T02:52:50.149Z,27.20
2017-12-06T02:53:53.110Z,31.00
2017-12-06T02:54:56.113Z,33.40
2017-12-06T02:55:59.478Z,29.80
2017-12-06T02:57:02.453Z,28.00
2017-12-06T02:58:05.428Z,28.00
2017-12-06T02:59:08.388Z,31.40
2017-12-06T03:00:11.394Z,34.80
2017-12-06T03:01:14.333Z,28.40
2017-12-06T03:02:17.606Z,30.20
2017-12-06T03:03:20.617Z,31.00
2017-12-06T03:04:23.567Z,35.75
2017-12-06T03:05:26.581Z,32.20
2017-12-06T03:06:29.536Z,32.20
2017-12-06T03:07:32.495Z,36.20
2017-12-06T03:08:35.801Z,33.00
2017-12-06T03:09:38.823Z,25.75
2017-12-06T03:10:41.883Z,32.00
2017-12-06T03:11:44.859Z,32.20
2017-12-06T03:12:48.860Z,33.40
2017-12-06T03:13:52.189Z,28.40
2017-12-06T03:14:55.691Z,34.00
2017-12-06T03:15:58.729Z,35.20
2017-12-06T03:17:01.808Z,32.00
2017-12-06T03:18:05.051Z,33.20
2017-12-06T03:19:09.017Z,38.20
2017-12-06T03:20:12.728Z,35.20
2017-12-06T03:21:15.789Z,27.40
2017-12-06T03:22:18.836Z,31.00
2017-12-06T03:23:21.807Z,43.00
2017-12-06T03:24:24.827Z,26.20
2017-12-06T03:25:27.859Z,29.60
2017-12-06T03:26:30.907Z,33.00
2017-12-06T03:27:34.143Z,40.00
2017-12-06T03:28:37.112Z,28.80
2017-12-06T03:29:40.145Z,28.40
2017-12-06T03:30:43.076Z,32.00
2017-12-06T03:31:46.041Z,34.20
2017-12-06T03:32:48.975Z,28.00
2017-12-06T03:33:52.323Z,28.60
2017-12-06T03:34:55.352Z,35.00
2017-12-06T03:35:58.351Z,31.00
2017-12-06T03:37:01.315Z,34.20
2017-12-06T03:38:05.236Z,33.00
2017-12-06T03:39:08.239Z,29.20
2017-12-06T03:40:11.555Z,38.20
2017-12-06T03:41:14.519Z,45.20
2017-12-06T03:42:17.536Z,33.80
2017-12-06T03:43:20.579Z,36.40
2017-12-06T03:44:23.584Z,40.60
2017-12-06T03:45:26.534Z,41.60
2017-12-06T03:46:29.976Z,33.00
2017-12-06T03:47:32.979Z,41.00
2017-12-06T03:48:35.944Z,32.40
2017-12-06T03:49:38.904Z,41.80
2017-12-06T03:50:41.879Z,33.00
2017-12-06T03:51:44.875Z,35.60
2017-12-06T03:52:48.141Z,42.80
2017-12-06T03:53:51.089Z,39.75
2017-12-06T03:54:54.114Z,37.20
2017-12-06T03:55:57.163Z,36.40
2017-12-06T03:57:00.203Z,42.20
2017-12-06T03:58:03.320Z,39.40
2017-12-06T03:59:06.695Z,34.60
2017-12-06T04:00:09.688Z,38.20
2017-12-06T04:01:12.694Z,34.20
2017-12-06T04:02:15.743Z,36.60
2017-12-06T04:03:18.714Z,38.75
2017-12-06T04:04:21.660Z,42.60
2017-12-06T04:05:24.993Z,33.40
2017-12-06T04:06:28.052Z,34.80
2017-12-06T04:07:31.204Z,39.80
2017-12-06T04:08:34.204Z,34.60
2017-12-06T04:09:37.235Z,35.50
2017-12-06T04:10:40.204Z,44.50
2017-12-06T04:11:43.479Z,38.60
2017-12-06T04:12:46.482Z,48.00
2017-12-06T04:13:49.481Z,38.20
2017-12-06T04:14:52.485Z,37.60
2017-12-06T04:15:55.477Z,34.00
2017-12-06T04:16:58.504Z,32.25
2017-12-06T04:18:01.476Z,33.40
2017-12-06T04:19:04.467Z,33.40
2017-12-06T04:20:07.516Z,36.40
2017-12-06T04:21:10.561Z,37.20
2017-12-06T04:22:13.591Z,37.80
2017-12-06T04:23:16.583Z,34.20
2017-12-06T04:24:19.993Z,39.40
2017-12-06T04:25:23.015Z,37.00
2017-12-06T04:26:25.991Z,40.50
2017-12-06T04:27:29.008Z,41.60
2017-12-06T04:28:32.317Z,38.20
2017-12-06T04:29:35.816Z,35.20
2017-12-06T04:30:38.825Z,39.60
2017-12-06T04:31:41.818Z,36.40
2017-12-06T04:32:44.849Z,30.60
2017-12-06T04:33:47.828Z,33.00
2017-12-06T04:34:51.062Z,34.00
2017-12-06T04:35:53.985Z,37.20
2017-12-06T04:36:56.978Z,34.80
2017-12-06T04:37:59.938Z,35.20
2017-12-06T04:39:02.980Z,39.20
2017-12-06T04:40:06.006Z,38.60
2017-12-06T04:41:09.324Z,35.50
2017-12-06T04:42:12.362Z,40.40
2017-12-06T04:43:15.419Z,33.00
2017-12-06T04:44:18.456Z,37.20
2017-12-06T04:45:21.442Z,32.20
2017-12-06T04:46:24.428Z,30.00
2017-12-06T04:47:27.673Z,45.60
2017-12-06T04:48:30.676Z,36.00
2017-12-06T04:49:33.644Z,34.60
2017-12-06T04:50:36.648Z,36.80
2017-12-06T04:51:39.660Z,38.20
2017-12-06T04:52:42.634Z,42.60
2017-12-06T04:53:45.897Z,40.80
2017-12-06T04:54:48.915Z,41.60
2017-12-06T04:55:51.943Z,38.50
2017-12-06T04:56:54.919Z,38.00
2017-12-06T04:57:57.872Z,40.00
2017-12-06T04:59:01.151Z,34.40
2017-12-06T05:00:04.607Z,41.40
2017-12-06T05:01:07.558Z,34.50
2017-12-06T05:02:10.545Z,33.20
2017-12-06T05:03:13.604Z,38.00
2017-12-06T05:04:16.596Z,34.80
2017-12-06T05:05:19.617Z,33.40
2017-12-06T05:06:22.935Z,39.60
2017-12-06T05:07:25.877Z,32.20
2017-12-06T05:08:28.898Z,34.80
2017-12-06T05:09:31.885Z,36.50
2017-12-06T05:10:34.859Z,32.20
2017-12-06T05:11:37.955Z,36.20
2017-12-06T05:12:41.296Z,30.80
2017-12-06T05:13:44.252Z,32.80
2017-12-06T05:14:47.212Z,30.20
2017-12-06T05:15:50.258Z,38.20
2017-12-06T05:16:53.238Z,31.80
2017-12-06T05:17:56.207Z,29.40
2017-12-06T05:18:59.222Z,35.60
2017-12-06T05:20:02.240Z,36.60
2017-12-06T05:21:05.290Z,34.00
2017-12-06T05:22:09.175Z,34.50
2017-12-06T05:23:12.154Z,39.80
2017-12-06T05:24:15.418Z,31.00
2017-12-06T05:25:18.401Z,37.00
2017-12-06T05:26:21.371Z,37.20
2017-12-06T05:27:24.421Z,34.00
2017-12-06T05:28:27.454Z,32.20
2017-12-06T05:29:30.696Z,26.40
2017-12-06T05:30:34.019Z,36.80
2017-12-06T05:31:37.025Z,33.60
2017-12-06T05:32:39.979Z,37.80
2017-12-06T05:33:43.009Z,34.80
2017-12-06T05:34:46.276Z,33.60
2017-12-06T05:35:49.245Z,37.40
2017-12-06T05:36:52.497Z,33.20
2017-12-06T05:37:55.477Z,29.00
2017-12-06T05:38:58.432Z,37.00
2017-12-06T05:40:01.423Z,30.80
2017-12-06T05:41:04.398Z,33.00
2017-12-06T05:42:07.360Z,33.00
2017-12-06T05:43:11.021Z,34.50
2017-12-06T05:44:14.060Z,39.00
2017-12-06T05:45:17.058Z,31.40
2017-12-06T05:46:20.095Z,30.60
2017-12-06T05:47:23.067Z,39.20
2017-12-06T05:48:26.009Z,42.20
2017-12-06T05:49:29.348Z,38.40
2017-12-06T05:50:32.392Z,38.00
2017-12-06T05:51:35.368Z,37.00
2017-12-06T05:52:38.326Z,30.20
2017-12-06T05:53:41.423Z,30.20
2017-12-06T05:54:44.415Z,35.40
2017-12-06T05:55:48.018Z,40.20
2017-12-06T05:56:51.044Z,34.60
2017-12-06T05:57:54.018Z,26.00
2017-12-06T05:58:56.973Z,38.20
2017-12-06T05:59:59.951Z,39.00
2017-12-06T06:01:02.923Z,38.40
2017-12-06T06:02:05.940Z,41.00
2017-12-06T06:03:08.911Z,33.40
2017-12-06T06:04:11.973Z,33.40
2017-12-06T06:05:14.990Z,35.60
2017-12-06T06:06:18.138Z,41.20
2017-12-06T06:07:21.740Z,35.80
2017-12-06T06:08:24.717Z,39.00
2017-12-06T06:09:27.824Z,38.20
2017-12-06T06:10:30.925Z,36.00
2017-12-06T06:11:33.985Z,35.00
2017-12-06T06:12:36.985Z,39.20
2017-12-06T06:13:40.494Z,33.80
2017-12-06T06:14:43.478Z,37.20
2017-12-06T06:15:46.529Z,38.20
2017-12-06T06:16:49.603Z,41.60
2017-12-06T06:17:52.622Z,34.60
2017-12-06T06:18:55.575Z,41.00
2017-12-06T06:19:58.796Z,39.80
2017-12-06T06:21:01.772Z,32.00
2017-12-06T06:22:04.695Z,31.40
2017-12-06T06:23:07.536Z,29.50
2017-12-06T06:24:10.359Z,34.00
2017-12-06T06:25:13.190Z,34.00
2017-12-06T06:26:16.942Z,34.00
2017-12-06T06:27:20.031Z,30.40
2017-12-06T06:28:23.033Z,32.20
2017-12-06T06:29:26.068Z,36.00
2017-12-06T06:30:29.126Z,37.75
2017-12-06T06:31:32.175Z,34.60
2017-12-06T06:32:35.165Z,30.60
2017-12-06T06:33:38.225Z,40.20
2017-12-06T06:34:41.284Z,42.80
2017-12-06T06:35:44.934Z,29.00
2017-12-06T06:36:47.991Z,29.40
2017-12-06T06:37:51.077Z,34.40
2017-12-06T06:38:54.540Z,38.00
2017-12-06T06:39:57.560Z,33.50
2017-12-06T06:41:00.670Z,34.80
2017-12-06T06:42:03.890Z,28.40
2017-12-06T06:43:06.973Z,30.50
2017-12-06T06:44:09.976Z,34.00
2017-12-06T06:45:13.529Z,30.00
2017-12-06T06:46:16.530Z,36.00
2017-12-06T06:47:19.537Z,29.60
2017-12-06T06:48:22.525Z,33.00
2017-12-06T06:49:25.512Z,33.00
2017-12-06T06:50:28.601Z,25.50
2017-12-06T06:51:32.099Z,33.60
2017-12-06T06:52:35.103Z,28.00
2017-12-06T06:53:38.153Z,31.00
2017-12-06T06:54:41.136Z,28.80
2017-12-06T06:55:44.111Z,28.40
2017-12-06T06:56:47.176Z,28.00
2017-12-06T06:57:50.547Z,34.00
2017-12-06T06:58:53.603Z,31.80
2017-12-06T06:59:56.576Z,31.40
2017-12-06T07:00:59.552Z,27.00
2017-12-06T07:02:02.588Z,35.60
2017-12-06T07:03:05.619Z,36.00
2017-12-06T07:04:08.955Z,31.40
2017-12-06T07:05:11.904Z,34.00
2017-12-06T07:06:14.940Z,28.00
2017-12-06T07:07:18.014Z,30.25
2017-12-06T07:08:21.035Z,37.00
2017-12-06T07:09:23.982Z,34.20
2017-12-06T07:10:27.339Z,37.80
2017-12-06T07:11:30.458Z,32.00
2017-12-06T07:12:33.487Z,32.80
2017-12-06T07:13:36.495Z,31.40
2017-12-06T07:14:39.592Z,33.25
2017-12-06T07:15:42.683Z,31.40
2017-12-06T07:16:46.008Z,33.40
2017-12-06T07:17:49.057Z,32.00
2017-12-06T07:18:52.104Z,36.00
2017-12-06T07:19:55.182Z,29.00
2017-12-06T07:20:58.188Z,38.20
2017-12-06T07:22:01.216Z,33.40
2017-12-06T07:23:04.497Z,33.20
2017-12-06T07:24:07.542Z,35.80
2017-12-06T07:25:10.604Z,32.80
2017-12-06T07:26:13.616Z,38.80
2017-12-06T07:27:16.680Z,34.60
2017-12-06T07:28:20.356Z,34.00
2017-12-06T07:29:23.788Z,32.60
2017-12-06T07:30:26.804Z,33.50
2017-12-06T07:31:29.980Z,35.60
2017-12-06T07:32:33.086Z,34.40
2017-12-06T07:33:36.051Z,39.60
2017-12-06T07:34:39.261Z,33.50
2017-12-06T07:35:42.719Z,36.40
2017-12-06T07:36:45.811Z,33.60
2017-12-06T07:37:48.913Z,35.80
2017-12-06T07:38:51.872Z,37.00
2017-12-06T07:39:54.861Z,34.00
2017-12-06T07:40:57.828Z,32.40
2017-12-06T07:42:01.128Z,41.20
2017-12-06T07:43:04.160Z,33.20
2017-12-06T07:44:07.181Z,33.00
2017-12-06T07:45:10.167Z,28.60
2017-12-06T07:46:13.105Z,27.80
2017-12-06T07:47:16.108Z,40.60
2017-12-06T07:48:19.618Z,31.80
2017-12-06T07:49:22.704Z,30.20
2017-12-06T07:50:25.754Z,33.80
2017-12-06T07:51:28.792Z,36.50
2017-12-06T07:52:32.016Z,35.00
2017-12-06T07:53:35.498Z,34.60
2017-12-06T07:54:38.818Z,35.00
2017-12-06T07:55:41.867Z,31.00
2017-12-06T07:56:44.908Z,40.00
2017-12-06T07:57:47.931Z,34.00
2017-12-06T07:58:51.131Z,33.60
2017-12-06T07:59:54.210Z,31.00
2017-12-06T08:00:57.561Z,35.00
2017-12-06T08:02:00.619Z,35.40
2017-12-06T08:03:03.581Z,36.20
2017-12-06T08:04:06.749Z,35.00
2017-12-06T08:05:09.629Z,29.40
2017-12-06T08:06:12.701Z,33.20
2017-12-06T08:07:16.654Z,27.20
2017-12-06T08:08:19.778Z,34.00
2017-12-06T08:09:22.784Z,34.00
2017-12-06T08:10:25.841Z,34.60
2017-12-06T08:11:28.897Z,36.20
2017-12-06T08:12:31.864Z,42.00
2017-12-06T08:13:35.270Z,35.40
2017-12-06T08:14:38.284Z,30.20
2017-12-06T08:15:41.290Z,34.60
2017-12-06T08:16:44.340Z,42.00
2017-12-06T08:17:47.459Z,34.00
2017-12-06T08:18:50.446Z,38.00
2017-12-06T08:19:53.765Z,34.80
2017-12-06T08:20:56.837Z,28.20
2017-12-06T08:22:00.115Z,35.00
2017-12-06T08:23:03.130Z,35.00
2017-12-06T08:24:06.198Z,30.40
2017-12-06T08:25:09.208Z,35.00
2017-12-06T08:26:12.257Z,33.80
2017-12-06T08:27:15.290Z,34.60
2017-12-06T08:28:18.337Z,26.00
2017-12-06T08:29:21.432Z,28.20
2017-12-06T08:30:24.376Z,32.00
2017-12-06T08:31:27.655Z,37.00
2017-12-06T08:32:30.575Z,31.80
2017-12-06T08:33:33.527Z,27.00
2017-12-06T08:34:36.554Z,32.60
2017-12-06T08:35:39.604Z,31.80
2017-12-06T08:36:42.648Z,30.75
2017-12-06T08:37:45.707Z,37.00
2017-12-06T08:38:48.758Z,33.40
2017-12-06T08:39:51.755Z,30.00
2017-12-06T08:40:54.811Z,28.00
2017-12-06T08:41:57.931Z,31.00
2017-12-06T08:43:02.640Z,33.20
2017-12-06T08:44:05.660Z,34.00
2017-12-06T08:45:08.593Z,32.00
2017-12-06T08:46:11.646Z,30.20
2017-12-06T08:47:14.732Z,33.60
2017-12-06T08:48:17.722Z,29.00
2017-12-06T08:49:21.048Z,32.80
2017-12-06T08:50:24.083Z,27.80
2017-12-06T08:51:27.119Z,37.00
2017-12-06T08:52:30.135Z,30.00
2017-12-06T08:53:33.102Z,30.20
2017-12-06T08:54:36.199Z,29.20
2017-12-06T08:55:40.188Z,29.00
2017-12-06T08:56:43.350Z,34.00
2017-12-06T08:57:46.478Z,35.40
2017-12-06T08:58:49.569Z,31.00
2017-12-06T08:59:52.692Z,31.60
2017-12-06T09:00:55.701Z,34.80
2017-12-06T09:01:59.192Z,34.40
2017-12-06T09:03:02.205Z,34.20
2017-12-06T09:04:05.169Z,33.00
2017-12-06T09:05:08.257Z,30.80
2017-12-06T09:06:11.468Z,35.40
2017-12-06T09:07:15.851Z,33.80
2017-12-06T09:08:19.441Z,33.20
2017-12-06T09:09:22.996Z,30.80
2017-12-06T09:10:26.317Z,35.00
2017-12-06T09:11:29.293Z,33.50
2017-12-06T09:12:32.444Z,29.40
2017-12-06T09:13:35.434Z,26.00
2017-12-06T09:14:39.479Z,31.00
2017-12-06T09:15:42.856Z,32.00
2017-12-06T09:16:45.861Z,28.00
2017-12-06T09:17:48.871Z,31.00
2017-12-06T09:18:51.859Z,35.00
2017-12-06T09:19:54.884Z,26.00
2017-12-06T09:20:58.631Z,27.60
2017-12-06T09:22:01.615Z,33.00
2017-12-06T09:23:04.670Z,27.40
2017-12-06T09:24:07.750Z,26.20
2017-12-06T09:25:10.758Z,35.00
2017-12-06T09:26:13.827Z,27.20
2017-12-06T09:27:17.424Z,27.80
2017-12-06T09:28:20.437Z,29.25
2017-12-06T09:29:23.443Z,30.80
2017-12-06T09:30:26.460Z,30.00
2017-12-06T09:31:29.547Z,38.50
2017-12-06T09:32:32.615Z,32.00
2017-12-06T09:33:35.962Z,30.00
2017-12-06T09:34:39.252Z,32.75
2017-12-06T09:35:42.397Z,30.20
2017-12-06T09:36:45.418Z,32.75
2017-12-06T09:37:48.434Z,34.25
2017-12-06T09:38:51.467Z,31.60
2017-12-06T09:39:54.912Z,40.00
2017-12-06T09:40:57.938Z,30.40
2017-12-06T09:42:00.975Z,36.40
2017-12-06T09:43:04.066Z,35.40
2017-12-06T09:44:07.065Z,27.80
2017-12-06T09:45:10.072Z,28.40
2017-12-06T09:46:13.629Z,26.80
2017-12-06T09:47:16.704Z,30.40
2017-12-06T09:48:19.826Z,32.60
2017-12-06T09:49:22.938Z,33.80
2017-12-06T09:50:26.075Z,35.80
2017-12-06T09:51:29.208Z,35.20
2017-12-06T09:52:32.629Z,33.25
2017-12-06T09:53:35.703Z,32.00
2017-12-06T09:54:38.764Z,26.00
2017-12-06T09:55:41.741Z,30.60
2017-12-06T09:56:45.353Z,34.50
2017-12-06T09:57:48.432Z,36.00
2017-12-06T09:58:51.536Z,27.80
2017-12-06T09:59:54.546Z,26.20
2017-12-06T10:00:57.693Z,38.00
2017-12-06T10:02:00.728Z,28.20
2017-12-06T10:03:03.780Z,26.80
2017-12-06T10:04:07.070Z,28.40
2017-12-06T10:05:09.972Z,24.00
2017-12-06T10:06:15.867Z,35.40
2017-12-06T10:07:18.837Z,29.20
2017-12-06T10:08:21.818Z,29.80
2017-12-06T10:09:24.798Z,24.80
2017-12-06T10:10:28.225Z,26.80
2017-12-06T10:11:31.305Z,27.40
2017-12-06T10:12:34.395Z,30.20
2017-12-06T10:13:38.301Z,26.80
2017-12-06T10:14:41.448Z,33.20
2017-12-06T10:15:44.579Z,30.00
2017-12-06T10:16:48.068Z,27.00
2017-12-06T10:17:51.140Z,26.00
2017-12-06T10:18:54.204Z,32.20
2017-12-06T10:19:57.253Z,23.00
2017-12-06T10:21:00.380Z,29.60
2017-12-06T10:22:03.410Z,26.25
2017-12-06T10:23:06.986Z,21.00
2017-12-06T10:24:10.059Z,21.00
2017-12-06T10:25:13.133Z,31.20
2017-12-06T10:26:16.242Z,20.40
2017-12-06T10:27:19.288Z,24.00
2017-12-06T10:28:22.408Z,27.00
2017-12-06T10:29:25.906Z,26.60
2017-12-06T10:30:28.994Z,31.00
2017-12-06T10:31:32.071Z,28.00
2017-12-06T10:32:35.110Z,24.60
2017-12-06T10:33:38.191Z,32.75
2017-12-06T10:34:41.280Z,25.20
2017-12-06T10:35:44.752Z,25.20
2017-12-06T10:36:47.917Z,24.80
2017-12-06T10:37:50.950Z,25.20
2017-12-06T10:38:54.049Z,28.20
2017-12-06T10:39:57.129Z,29.00
2017-12-06T10:41:00.144Z,29.40
2017-12-06T10:42:08.012Z,24.60
2017-12-06T10:43:11.521Z,25.80
2017-12-06T10:44:15.148Z,21.40
2017-12-06T10:45:18.190Z,24.00
2017-12-06T10:46:21.244Z,26.00
2017-12-06T10:47:24.465Z,25.20
2017-12-06T10:48:27.481Z,20.40
2017-12-06T10:49:30.523Z,21.40
2017-12-06T10:50:33.604Z,22.20
2017-12-06T10:51:36.676Z,21.00
2017-12-06T10:52:39.711Z,22.00
2017-12-06T10:53:43.186Z,24.00
2017-12-06T10:54:46.308Z,20.20
2017-12-06T10:55:49.314Z,21.60
2017-12-06T10:56:52.341Z,18.00
2017-12-06T10:57:55.379Z,19.20
2017-12-06T10:58:58.425Z,21.00
2017-12-06T11:00:01.883Z,23.00
2017-12-06T11:01:04.856Z,17.50
2017-12-06T11:02:07.837Z,19.20
2017-12-06T11:03:10.897Z,20.00
2017-12-06T11:04:13.899Z,15.40
2017-12-06T11:05:17.028Z,20.00
2017-12-06T11:06:20.336Z,21.80
2017-12-06T11:07:24.244Z,17.60
2017-12-06T11:08:27.284Z,20.00
2017-12-06T11:09:30.388Z,21.00
2017-12-06T11:10:33.417Z,18.00
2017-12-06T11:11:36.427Z,21.00
2017-12-06T11:12:39.861Z,21.80
2017-12-06T11:13:42.859Z,26.00
2017-12-06T11:14:45.874Z,16.00
2017-12-06T11:15:49.017Z,20.20
2017-12-06T11:16:52.054Z,21.00
2017-12-06T11:17:55.079Z,24.00
2017-12-06T11:18:58.128Z,17.60
2017-12-06T11:20:01.183Z,21.80
2017-12-06T11:21:04.180Z,18.80
2017-12-06T11:22:07.211Z,23.60
2017-12-06T11:23:10.251Z,19.80
2017-12-06T11:24:13.606Z,18.20
2017-12-06T11:25:16.707Z,19.00
2017-12-06T11:26:19.748Z,17.20
2017-12-06T11:27:22.851Z,23.80
2017-12-06T11:28:25.848Z,15.00
2017-12-06T11:29:29.226Z,16.60
2017-12-06T11:30:32.748Z,18.00
2017-12-06T11:31:35.768Z,20.20
2017-12-06T11:32:38.784Z,24.80
2017-12-06T11:33:41.848Z,21.00
2017-12-06T11:34:44.902Z,25.00
2017-12-06T11:35:47.928Z,18.00
2017-12-06T11:36:51.039Z,17.60
2017-12-06T11:37:54.060Z,16.00
2017-12-06T11:38:57.060Z,20.00
2017-12-06T11:40:00.136Z,15.60
2017-12-06T11:41:03.242Z,23.00
2017-12-06T11:42:06.764Z,22.00
2017-12-06T11:43:09.850Z,27.20
2017-12-06T11:44:12.898Z,21.40
2017-12-06T11:45:16.123Z,18.00
2017-12-06T11:46:19.173Z,18.60
2017-12-06T11:47:22.160Z,20.20
2017-12-06T11:48:25.513Z,18.00
2017-12-06T11:49:28.765Z,21.00
2017-12-06T11:50:31.787Z,17.50
2017-12-06T11:51:35.029Z,18.00
2017-12-06T11:52:38.123Z,19.80
2017-12-06T11:53:42.728Z,16.00
2017-12-06T11:54:46.308Z,17.20
2017-12-06T11:55:49.266Z,17.20
2017-12-06T11:56:52.510Z,18.00
2017-12-06T11:57:55.568Z,20.60
2017-12-06T11:58:58.588Z,20.20
2017-12-06T12:00:01.771Z,15.00
2017-12-06T12:01:05.259Z,16.80
2017-12-06T12:02:09.747Z,18.20
2017-12-06T12:03:12.811Z,18.40
2017-12-06T12:04:15.844Z,17.00
2017-12-06T12:05:18.951Z,15.80
2017-12-06T12:06:21.993Z,15.40
2017-12-06T12:07:25.649Z,18.00
2017-12-06T12:08:28.777Z,17.00
2017-12-06T12:09:31.857Z,18.60
2017-12-06T12:10:34.897Z,18.25
2017-12-06T12:11:37.967Z,15.00
2017-12-06T12:12:40.961Z,15.80
2017-12-06T12:13:44.649Z,15.40
2017-12-06T12:14:47.688Z,15.00
2017-12-06T12:15:50.722Z,21.40
2017-12-06T12:16:53.658Z,20.20
2017-12-06T12:17:56.583Z,13.00
2017-12-06T12:19:01.386Z,14.20
2017-12-06T12:20:04.821Z,15.60
2017-12-06T12:21:07.852Z,19.00
2017-12-06T12:22:10.856Z,15.00
2017-12-06T12:23:13.925Z,16.00
2017-12-06T12:24:17.987Z,18.00
2017-12-06T12:25:21.021Z,23.75
2017-12-06T12:26:24.567Z,15.20
2017-12-06T12:27:27.607Z,20.00
2017-12-06T12:28:30.670Z,19.40
2017-12-06T12:29:33.652Z,21.60
2017-12-06T12:30:36.657Z,18.40
2017-12-06T12:31:39.734Z,20.20
2017-12-06T12:32:43.413Z,19.00
2017-12-06T12:33:46.473Z,19.80
2017-12-06T12:34:49.531Z,19.00
2017-12-06T12:35:52.611Z,20.40
2017-12-06T12:36:55.737Z,14.20
2017-12-06T12:37:58.829Z,13.20
2017-12-06T12:39:02.475Z,15.40
2017-12-06T12:40:05.550Z,19.20
2017-12-06T12:41:08.607Z,18.00
2017-12-06T12:42:11.886Z,18.00
2017-12-06T12:43:14.986Z,19.80
2017-12-06T12:44:18.002Z,16.00
2017-12-06T12:45:21.561Z,12.40
2017-12-06T12:46:24.680Z,16.40
2017-12-06T12:47:32.228Z,18.40
2017-12-06T12:48:35.349Z,15.60
2017-12-06T12:49:38.357Z,17.60
2017-12-06T12:50:41.421Z,18.40
2017-12-06T12:51:45.181Z,18.00
2017-12-06T12:52:48.275Z,18.00
2017-12-06T12:53:51.361Z,16.00
2017-12-06T12:54:54.375Z,16.00
2017-12-06T12:55:57.478Z,16.40
2017-12-06T12:57:00.640Z,17.20
2017-12-06T12:58:04.087Z,18.00
2017-12-06T12:59:07.525Z,15.00
2017-12-06T13:00:10.577Z,16.00
2017-12-06T13:01:13.662Z,18.60
2017-12-06T13:02:20.213Z,15.00
2017-12-06T13:03:24.498Z,16.20
2017-12-06T13:04:28.735Z,16.00
2017-12-06T13:05:31.701Z,14.20
2017-12-06T13:06:34.731Z,20.20
2017-12-06T13:07:38.935Z,17.20
2017-12-06T13:08:42.083Z,19.20
2017-12-06T13:09:45.155Z,19.00
2017-12-06T13:10:49.422Z,19.00
2017-12-06T13:11:52.437Z,16.80
2017-12-06T13:12:55.500Z,13.40
2017-12-06T13:13:58.539Z,19.00
2017-12-06T13:15:01.553Z,17.80
2017-12-06T13:16:04.781Z,21.00
2017-12-06T13:17:08.135Z,14.40
2017-12-06T13:18:11.201Z,18.60
2017-12-06T13:19:15.732Z,16.80
2017-12-06T13:20:18.893Z,15.60
2017-12-06T13:21:23.452Z,18.40
2017-12-06T13:22:26.520Z,17.60
2017-12-06T13:23:29.921Z,15.00
2017-12-06T13:24:32.968Z,22.00
2017-12-06T13:25:36.104Z,15.00
2017-12-06T13:26:40.313Z,16.40
2017-12-06T13:27:43.351Z,19.00
2017-12-06T13:28:46.383Z,23.40
2017-12-06T13:29:51.130Z,15.50
2017-12-06T13:30:54.158Z,19.00
2017-12-06T13:31:57.986Z,12.60
2017-12-06T13:33:01.496Z,19.50
2017-12-06T13:34:04.584Z,16.40